Time,TemperatureF,DewpointF,PressureIn,WindDirection,WindDirectionDegrees,WindSpeedMPH,WindSpeedGustMPH,Humidity,HourlyPrecipIn,Conditions,Clouds,dailyrainin,SoftwareType,DateUTC
2013-04-11 00:00:00,48.3,46.7,29.86,SE,136,5.0,7.0,94,0.00,-RA,,0.00,WeatherDisplay:10.37,2013-04-11 04:00:00,
2013-04-11 00:06:00,48.3,46.7,29.85,SE,133,5.8,5.8,94,0.01,-RA,,0.00,WeatherDisplay:10.37,2013-04-11 04:06:00,
2013-04-11 00:11:00,48.3,46.7,29.85,SE,134,5.0,5.0,94,0.01,-RA,,0.00,WeatherDisplay:10.37,2013-04-11 04:11:00,
2013-04-11 00:16:00,48.1,46.5,29.84,SE,127,8.1,8.1,94,0.01,-RA,,0.00,WeatherDisplay:10.37,2013-04-11 04:16:00,
2013-04-11 00:21:00,47.9,46.3,29.84,SE,126,8.1,8.1,94,0.01,-RA,,0.00,WeatherDisplay:10.37,2013-04-11 04:21:00,
2013-04-11 00:27:00,47.8,46.2,29.85,SSE,163,6.9,6.9,94,0.00,-RA,,0.00,WeatherDisplay:10.37,2013-04-11 04:27:00,
2013-04-11 00:32:00,47.7,46.1,29.85,SSE,166,5.8,5.8,94,0.00,-RA,,0.00,WeatherDisplay:10.37,2013-04-11 04:32:00,
2013-04-11 00:37:00,47.5,45.9,29.84,SSE,158,5.8,5.8,94,0.00,-RA,,0.00,WeatherDisplay:10.37,2013-04-11 04:37:00,
2013-04-11 00:42:00,47.4,45.8,29.84,SSE,156,4.6,4.6,94,0.00,-RA,,0.00,WeatherDisplay:10.37,2013-04-11 04:42:00,
2013-04-11 00:47:00,47.4,45.8,29.84,SSE,156,2.3,2.3,94,0.00,-RA,,0.00,WeatherDisplay:10.37,2013-04-11 04:47:00,
2013-04-11 00:52:00,47.4,45.8,29.84,SSE,156,4.0,4.0,94,0.00,-RA,,0.00,WeatherDisplay:10.37,2013-04-11 04:52:00,
2013-04-11 00:57:00,47.4,46.0,29.83,SSE,155,4.0,4.0,95,0.00,-RA,,0.00,WeatherDisplay:10.37,2013-04-11 04:57:00,
2013-04-11 01:02:00,47.4,46.0,29.82,SE,126,6.0,6.0,95,0.00,BKN,,0.00,WeatherDisplay:10.37,2013-04-11 05:02:00,
2013-04-11 01:07:00,47.3,45.7,29.83,East,96,5.8,5.8,94,0.00,BKN,,0.00,WeatherDisplay:10.37,2013-04-11 05:07:00,
2013-04-11 01:13:00,47.3,45.9,29.83,East,96,5.0,5.0,95,0.00,BKN,,0.00,WeatherDisplay:10.37,2013-04-11 05:13:00,
2013-04-11 01:18:00,47.3,45.9,29.83,East,96,4.6,4.6,95,0.00,BKN,,0.00,WeatherDisplay:10.37,2013-04-11 05:18:00,
2013-04-11 01:23:00,47.3,45.9,29.83,East,96,2.3,2.3,95,0.00,BKN,,0.00,WeatherDisplay:10.37,2013-04-11 05:23:00,
2013-04-11 01:28:00,47.2,45.8,29.82,East,96,3.5,3.5,95,0.00,BKN,,0.00,WeatherDisplay:10.37,2013-04-11 05:28:00,
2013-04-11 01:33:00,47.2,45.8,29.81,East,96,2.3,2.3,95,0.00,BKN,,0.00,WeatherDisplay:10.37,2013-04-11 05:33:00,
2013-04-11 01:38:00,47.3,45.9,29.82,East,96,0.0,0.0,95,0.00,BKN,,0.00,WeatherDisplay:10.37,2013-04-11 05:38:00,
2013-04-11 01:43:00,47.4,46.0,29.82,East,96,4.0,4.0,95,0.00,BKN,,0.00,WeatherDisplay:10.37,2013-04-11 05:43:00,
2013-04-11 01:49:00,47.4,46.0,29.82,East,96,1.1,0.0,95,0.01,RA,,0.01,WeatherDisplay:10.37,2013-04-11 05:49:00,
2013-04-11 01:54:00,47.4,46.0,29.82,East,96,1.1,1.1,95,0.01,BKN,,0.01,WeatherDisplay:10.37,2013-04-11 05:54:00,
2013-04-11 01:59:00,47.4,46.0,29.83,East,96,1.0,1.0,95,0.01,BKN,,0.01,WeatherDisplay:10.37,2013-04-11 05:59:00,
2013-04-11 02:04:00,47.4,46.0,29.83,East,96,1.1,1.1,95,0.01,OVC,,0.01,WeatherDisplay:10.37,2013-04-11 06:04:00,
2013-04-11 02:09:00,47.4,46.0,29.83,East,96,2.3,2.3,95,0.01,OVC,,0.01,WeatherDisplay:10.37,2013-04-11 06:09:00,
2013-04-11 02:14:00,47.4,46.0,29.83,East,96,2.3,2.3,95,0.01,OVC,,0.01,WeatherDisplay:10.37,2013-04-11 06:14:00,
2013-04-11 02:19:00,47.4,46.0,29.83,East,96,1.1,0.0,95,0.01,OVC,,0.01,WeatherDisplay:10.37,2013-04-11 06:19:00,
2013-04-11 02:24:00,47.3,45.9,29.83,East,96,0.0,0.0,95,0.01,OVC,,0.01,WeatherDisplay:10.37,2013-04-11 06:24:00,
2013-04-11 02:29:00,47.3,45.9,29.82,East,96,4.6,4.6,95,0.01,OVC,,0.01,WeatherDisplay:10.37,2013-04-11 06:29:00,
2013-04-11 02:35:00,47.2,45.8,29.82,East,96,2.3,2.3,95,0.01,OVC,,0.01,WeatherDisplay:10.37,2013-04-11 06:35:00,
2013-04-11 02:40:00,47.2,45.8,29.82,East,96,1.1,1.1,95,0.01,OVC,,0.01,WeatherDisplay:10.37,2013-04-11 06:40:00,
2013-04-11 02:45:00,47.1,45.7,29.82,East,96,0.0,0.0,95,0.00,OVC,,0.01,WeatherDisplay:10.37,2013-04-11 06:45:00,
2013-04-11 02:50:00,47.0,45.6,29.82,East,96,0.0,0.0,95,0.00,OVC,,0.01,WeatherDisplay:10.37,2013-04-11 06:50:00,
2013-04-11 02:55:00,47.1,45.7,29.82,East,96,1.1,1.1,95,0.00,OVC,,0.01,WeatherDisplay:10.37,2013-04-11 06:55:00,
2013-04-11 03:00:00,47.1,45.7,29.81,East,96,0.0,0.0,95,0.00,OVC,,0.01,WeatherDisplay:10.37,2013-04-11 07:00:00,
2013-04-11 03:05:00,47.2,45.8,29.80,East,96,3.5,3.5,95,0.00,OVC,,0.01,WeatherDisplay:10.37,2013-04-11 07:05:00,
2013-04-11 03:11:00,47.2,45.8,29.80,East,96,4.6,4.6,95,0.00,OVC,,0.01,WeatherDisplay:10.37,2013-04-11 07:11:00,
2013-04-11 03:16:00,47.2,45.8,29.80,East,96,4.6,4.6,95,0.00,OVC,,0.01,WeatherDisplay:10.37,2013-04-11 07:16:00,
2013-04-11 03:21:00,47.3,45.9,29.80,East,96,3.5,3.5,95,0.00,OVC,,0.01,WeatherDisplay:10.37,2013-04-11 07:21:00,
2013-04-11 03:26:00,47.5,46.1,29.81,East,96,2.3,2.3,95,0.00,OVC,,0.01,WeatherDisplay:10.37,2013-04-11 07:26:00,
2013-04-11 03:31:00,47.6,46.2,29.81,East,96,0.0,0.1,95,0.00,OVC,,0.01,WeatherDisplay:10.37,2013-04-11 07:31:00,
2013-04-11 03:36:00,47.7,46.3,29.81,East,96,0.0,0.0,95,0.00,OVC,,0.01,WeatherDisplay:10.37,2013-04-11 07:36:00,
2013-04-11 03:42:00,47.8,46.4,29.81,East,96,1.1,0.0,95,0.00,OVC,,0.01,WeatherDisplay:10.37,2013-04-11 07:42:00,
2013-04-11 03:47:00,47.9,46.5,29.81,East,96,4.6,4.6,95,0.00,OVC,,0.01,WeatherDisplay:10.37,2013-04-11 07:47:00,
2013-04-11 03:52:00,48.1,46.7,29.81,East,96,3.5,3.5,95,0.00,OVC,,0.01,WeatherDisplay:10.37,2013-04-11 07:52:00,
2013-04-11 03:58:00,48.2,46.8,29.81,East,96,2.3,2.3,95,0.00,OVC,,0.01,WeatherDisplay:10.37,2013-04-11 07:58:00,
2013-04-11 04:03:00,48.3,46.9,29.80,East,96,4.6,4.6,95,0.00,OVC,,0.01,WeatherDisplay:10.37,2013-04-11 08:03:00,
2013-04-11 04:08:00,48.5,47.4,29.81,East,96,4.6,4.6,96,0.00,OVC,,0.01,WeatherDisplay:10.37,2013-04-11 08:08:00,
2013-04-11 04:13:00,48.6,47.5,29.81,NW,325,3.5,3.5,96,0.00,OVC,,0.01,WeatherDisplay:10.37,2013-04-11 08:13:00,
2013-04-11 04:19:00,48.8,47.7,29.82,NW,321,4.6,4.6,96,0.00,OVC,,0.01,WeatherDisplay:10.37,2013-04-11 08:19:00,
2013-04-11 04:24:00,48.9,47.8,29.83,NW,315,2.0,2.0,96,0.00,OVC,,0.01,WeatherDisplay:10.37,2013-04-11 08:24:00,
2013-04-11 04:29:00,49.0,47.9,29.83,NW,318,3.5,3.5,96,0.00,OVC,,0.01,WeatherDisplay:10.37,2013-04-11 08:29:00,
2013-04-11 04:34:00,49.0,47.9,29.81,NW,318,4.0,4.0,96,0.00,OVC,,0.01,WeatherDisplay:10.37,2013-04-11 08:34:00,
2013-04-11 04:39:00,49.1,48.0,29.82,North,351,8.1,8.1,96,0.00,OVC,,0.01,WeatherDisplay:10.37,2013-04-11 08:39:00,
2013-04-11 04:45:00,49.1,48.0,29.82,North,5,4.6,4.6,96,0.00,OVC,,0.01,WeatherDisplay:10.37,2013-04-11 08:45:00,
2013-04-11 04:50:00,49.1,48.0,29.82,North,11,4.0,4.0,96,0.00,OVC,,0.01,WeatherDisplay:10.37,2013-04-11 08:50:00,
2013-04-11 04:55:00,49.2,48.1,29.82,North,5,3.5,3.5,96,0.00,OVC,,0.01,WeatherDisplay:10.37,2013-04-11 08:55:00,
2013-04-11 05:00:00,49.3,48.2,29.82,NNW,347,4.6,4.6,96,0.00,OVC,,0.01,WeatherDisplay:10.37,2013-04-11 09:00:00,
2013-04-11 05:06:00,49.4,48.3,29.82,NNW,347,1.1,1.1,96,0.00,OVC,,0.01,WeatherDisplay:10.37,2013-04-11 09:06:00,
2013-04-11 05:11:00,49.5,48.4,29.81,NNW,348,4.0,4.0,96,0.00,OVC,,0.01,WeatherDisplay:10.37,2013-04-11 09:11:00,
2013-04-11 05:16:00,49.5,48.4,29.84,NNW,348,3.5,3.5,96,0.00,OVC,,0.01,WeatherDisplay:10.37,2013-04-11 09:16:00,
2013-04-11 05:22:00,49.7,48.6,29.84,NNW,347,4.6,4.6,96,0.00,OVC,,0.01,WeatherDisplay:10.37,2013-04-11 09:22:00,
2013-04-11 05:27:00,49.9,48.8,29.85,NW,307,3.5,3.5,96,0.00,OVC,,0.01,WeatherDisplay:10.37,2013-04-11 09:27:00,
2013-04-11 05:32:00,50.1,49.0,29.84,NNW,337,5.0,5.0,96,0.00,OVC,,0.01,WeatherDisplay:10.37,2013-04-11 09:32:00,
2013-04-11 05:37:00,50.3,49.2,29.85,NNW,337,2.0,2.0,96,0.00,OVC,,0.01,WeatherDisplay:10.37,2013-04-11 09:37:00,
2013-04-11 05:42:00,50.4,49.3,29.85,NW,321,6.9,6.9,96,0.00,OVC,,0.01,WeatherDisplay:10.37,2013-04-11 09:42:00,
2013-04-11 05:48:00,50.4,49.3,29.85,NNW,341,3.5,3.5,96,0.00,OVC,,0.01,WeatherDisplay:10.37,2013-04-11 09:48:00,
2013-04-11 05:53:00,50.5,49.4,29.85,NNW,342,5.8,5.8,96,0.00,OVC,,0.01,WeatherDisplay:10.37,2013-04-11 09:53:00,
2013-04-11 05:58:00,50.7,49.6,29.86,NNW,344,8.0,8.0,96,0.00,OVC,,0.01,WeatherDisplay:10.37,2013-04-11 09:58:00,
2013-04-11 06:03:00,50.8,49.7,29.86,NW,313,6.0,6.0,96,0.00,OVC,,0.01,WeatherDisplay:10.37,2013-04-11 10:03:00,
2013-04-11 06:09:00,50.9,49.8,29.87,NW,325,4.6,4.6,96,0.00,OVC,,0.01,WeatherDisplay:10.37,2013-04-11 10:09:00,
2013-04-11 06:14:00,50.9,49.8,29.87,NW,326,4.6,4.6,96,0.00,OVC,,0.01,WeatherDisplay:10.37,2013-04-11 10:14:00,
2013-04-11 06:19:00,50.9,49.8,29.88,NW,325,8.1,8.1,96,0.00,OVC,,0.01,WeatherDisplay:10.37,2013-04-11 10:19:00,
2013-04-11 06:24:00,50.9,49.8,29.88,NNW,338,3.5,3.9,96,0.00,OVC,,0.01,WeatherDisplay:10.37,2013-04-11 10:24:00,
2013-04-11 06:29:00,50.9,49.8,29.88,NW,317,4.6,4.6,96,0.00,OVC,,0.01,WeatherDisplay:10.37,2013-04-11 10:29:00,
2013-04-11 06:35:00,50.9,49.8,29.88,North,360,13.0,13.0,96,0.00,OVC,,0.01,WeatherDisplay:10.37,2013-04-11 10:35:00,
2013-04-11 06:40:00,50.9,49.5,29.89,North,360,10.4,10.4,95,0.00,OVC,,0.01,WeatherDisplay:10.37,2013-04-11 10:40:00,
2013-04-11 06:45:00,50.9,49.5,29.90,NNW,338,9.2,9.2,95,0.00,OVC,,0.01,WeatherDisplay:10.37,2013-04-11 10:45:00,
2013-04-11 06:50:00,50.9,49.5,29.90,NNW,336,10.4,10.4,95,0.00,OVC,,0.01,WeatherDisplay:10.37,2013-04-11 10:50:00,
2013-04-11 06:55:00,50.9,49.5,29.90,NNW,340,8.1,8.1,95,0.00,OVC,,0.01,WeatherDisplay:10.37,2013-04-11 10:55:00,
2013-04-11 07:00:00,50.9,49.5,29.91,NNW,328,10.4,10.4,95,0.00,OVC,,0.01,WeatherDisplay:10.37,2013-04-11 11:00:00,
2013-04-11 07:06:00,50.9,49.2,29.91,NNW,333,10.4,10.4,94,0.00,OVC,,0.01,WeatherDisplay:10.37,2013-04-11 11:06:00,
2013-04-11 07:11:00,50.9,49.2,29.91,NNW,342,8.1,8.1,94,0.00,OVC,,0.01,WeatherDisplay:10.37,2013-04-11 11:11:00,
2013-04-11 07:16:00,50.9,49.2,29.91,NW,320,12.7,12.7,94,0.00,OVC,,0.01,WeatherDisplay:10.37,2013-04-11 11:16:00,
2013-04-11 07:21:00,50.9,49.2,29.92,North,355,11.5,11.5,94,0.00,OVC,,0.01,WeatherDisplay:10.37,2013-04-11 11:21:00,
2013-04-11 07:27:00,51.0,49.3,29.92,NNW,335,10.4,10.4,94,0.00,OVC,,0.01,WeatherDisplay:10.37,2013-04-11 11:27:00,
2013-04-11 07:32:00,51.0,49.0,29.92,NW,325,3.5,3.5,93,0.00,OVC,,0.01,WeatherDisplay:10.37,2013-04-11 11:32:00,
2013-04-11 07:37:00,51.1,49.1,29.92,NNW,339,9.2,9.2,93,0.00,OVC,,0.01,WeatherDisplay:10.37,2013-04-11 11:37:00,
2013-04-11 07:42:00,51.0,49.0,29.92,NNW,333,10.0,10.0,93,0.00,OVC,,0.01,WeatherDisplay:10.37,2013-04-11 11:42:00,
2013-04-11 07:47:00,51.0,49.0,29.92,NNW,327,8.1,8.1,93,0.00,OVC,,0.01,WeatherDisplay:10.37,2013-04-11 11:47:00,
2013-04-11 07:52:00,51.0,49.0,29.92,NNW,346,9.2,9.2,93,0.00,OVC,,0.01,WeatherDisplay:10.37,2013-04-11 11:52:00,
2013-04-11 07:57:00,51.1,49.1,29.92,NW,324,6.9,6.9,93,0.00,OVC,,0.01,WeatherDisplay:10.37,2013-04-11 11:57:00,
2013-04-11 08:02:00,51.2,49.2,29.93,NNW,328,5.8,5.8,93,0.00,OVC,,0.01,WeatherDisplay:10.37,2013-04-11 12:02:00,
2013-04-11 08:08:00,51.2,49.2,29.92,NNW,327,6.9,6.9,93,0.00,OVC,,0.01,WeatherDisplay:10.37,2013-04-11 12:08:00,
2013-04-11 08:13:00,51.1,49.1,29.92,North,355,5.8,5.8,93,0.00,OVC,,0.01,WeatherDisplay:10.37,2013-04-11 12:13:00,
2013-04-11 08:18:00,51.2,49.2,29.92,NNW,347,8.1,8.1,93,0.00,OVC,,0.01,WeatherDisplay:10.37,2013-04-11 12:18:00,
2013-04-11 08:23:00,51.2,49.0,29.92,NNW,343,10.4,10.4,92,0.00,OVC,,0.01,WeatherDisplay:10.37,2013-04-11 12:23:00,
2013-04-11 08:28:00,51.3,49.1,29.92,NNW,338,10.4,10.4,92,0.00,OVC,,0.01,WeatherDisplay:10.37,2013-04-11 12:28:00,
2013-04-11 08:33:00,51.4,49.2,29.92,NNW,336,9.2,9.2,92,0.00,OVC,,0.01,WeatherDisplay:10.37,2013-04-11 12:33:00,
2013-04-11 08:38:00,51.6,49.4,29.92,NNW,329,10.4,10.4,92,0.00,OVC,,0.01,WeatherDisplay:10.37,2013-04-11 12:38:00,
2013-04-11 08:44:00,51.6,49.1,29.92,North,360,9.2,9.2,91,0.00,OVC,,0.01,WeatherDisplay:10.37,2013-04-11 12:44:00,
2013-04-11 08:49:00,51.8,49.3,29.93,NNW,344,10.4,10.4,91,0.00,OVC,,0.01,WeatherDisplay:10.37,2013-04-11 12:49:00,
2013-04-11 08:54:00,51.9,49.1,29.93,North,5,11.5,11.5,90,0.00,OVC,,0.01,WeatherDisplay:10.37,2013-04-11 12:54:00,
2013-04-11 08:59:00,52.1,49.0,29.93,NNE,12,10.0,10.0,89,0.00,OVC,,0.01,WeatherDisplay:10.37,2013-04-11 12:59:00,
2013-04-11 09:05:00,52.3,48.9,29.94,NNE,21,13.0,13.0,88,0.00,OVC,,0.01,WeatherDisplay:10.37,2013-04-11 13:05:00,
2013-04-11 09:10:00,52.5,48.7,29.93,NNW,343,10.4,10.4,87,0.00,OVC,,0.01,WeatherDisplay:10.37,2013-04-11 13:10:00,
2013-04-11 09:15:00,52.6,48.8,29.94,North,355,9.2,9.2,87,0.00,OVC,,0.01,WeatherDisplay:10.37,2013-04-11 13:15:00,
2013-04-11 09:20:00,52.7,48.3,29.95,North,349,12.0,12.0,85,0.00,OVC,,0.01,WeatherDisplay:10.37,2013-04-11 13:20:00,
2013-04-11 09:25:00,52.7,48.0,29.95,NNW,346,11.5,11.5,84,0.00,OVC,,0.01,WeatherDisplay:10.37,2013-04-11 13:25:00,
2013-04-11 09:30:00,52.8,48.4,29.95,North,360,10.4,10.4,85,0.00,OVC,,0.01,WeatherDisplay:10.37,2013-04-11 13:30:00,
2013-04-11 09:35:00,52.8,48.4,29.94,NNW,345,9.2,9.2,85,0.00,OVC,,0.01,WeatherDisplay:10.37,2013-04-11 13:35:00,
2013-04-11 09:40:00,53.0,48.6,29.94,North,360,9.0,9.0,85,0.00,OVC,,0.01,WeatherDisplay:10.37,2013-04-11 13:40:00,
2013-04-11 09:45:00,53.0,48.3,29.94,North,5,11.0,11.0,84,0.00,OVC,,0.01,WeatherDisplay:10.37,2013-04-11 13:45:00,
2013-04-11 09:50:00,53.1,48.4,29.94,North,351,10.0,10.0,84,0.00,OVC,,0.01,WeatherDisplay:10.37,2013-04-11 13:50:00,
2013-04-11 09:56:00,53.2,48.2,29.94,North,9,9.2,9.2,83,0.00,OVC,,0.01,WeatherDisplay:10.37,2013-04-11 13:56:00,
2013-04-11 10:01:00,53.4,48.4,29.94,NNE,26,10.4,10.4,83,0.00,OVC,,0.01,WeatherDisplay:10.37,2013-04-11 14:01:00,
2013-04-11 10:06:00,53.8,48.4,29.94,NNW,343,9.2,9.2,82,0.00,OVC,,0.01,WeatherDisplay:10.37,2013-04-11 14:06:00,
2013-04-11 10:11:00,54.0,48.3,29.93,NNE,18,9.2,9.2,81,0.00,OVC,,0.01,WeatherDisplay:10.37,2013-04-11 14:11:00,
2013-04-11 10:17:00,54.3,48.6,29.94,NNW,342,8.1,8.1,81,0.00,OVC,,0.01,WeatherDisplay:10.37,2013-04-11 14:17:00,
2013-04-11 10:22:00,54.5,48.5,29.94,NNE,16,9.2,9.2,80,0.00,OVC,,0.01,WeatherDisplay:10.37,2013-04-11 14:22:00,
2013-04-11 10:27:00,54.4,48.4,29.94,North,5,8.1,8.1,80,0.00,OVC,,0.01,WeatherDisplay:10.37,2013-04-11 14:27:00,
2013-04-11 10:32:00,54.5,48.5,29.95,North,9,8.1,8.1,80,0.00,OVC,,0.01,WeatherDisplay:10.37,2013-04-11 14:32:00,
2013-04-11 10:37:00,54.9,48.2,29.94,NNE,24,5.0,5.0,78,0.00,OVC,,0.01,WeatherDisplay:10.37,2013-04-11 14:37:00,
2013-04-11 10:43:00,55.2,48.5,29.94,NNW,340,9.2,9.2,78,0.00,OVC,,0.01,WeatherDisplay:10.37,2013-04-11 14:43:00,
2013-04-11 10:48:00,55.4,48.3,29.95,North,5,8.1,8.1,77,0.00,OVC,,0.01,WeatherDisplay:10.37,2013-04-11 14:48:00,
2013-04-11 10:53:00,55.4,48.3,29.94,North,9,9.2,9.2,77,0.00,OVC,,0.01,WeatherDisplay:10.37,2013-04-11 14:53:00,
2013-04-11 10:58:00,55.3,48.6,29.95,NNW,344,9.2,9.2,78,0.00,OVC,,0.01,WeatherDisplay:10.37,2013-04-11 14:58:00,
2013-04-11 11:03:00,55.5,48.4,29.95,North,355,11.5,11.5,77,0.00,OVC,,0.01,WeatherDisplay:10.37,2013-04-11 15:03:00,
2013-04-11 11:08:00,55.8,48.3,29.95,NNW,346,10.4,10.4,76,0.00,OVC,,0.01,WeatherDisplay:10.37,2013-04-11 15:08:00,
2013-04-11 11:13:00,56.0,48.2,29.95,NNW,348,10.4,10.4,75,0.00,OVC,,0.01,WeatherDisplay:10.37,2013-04-11 15:13:00,
2013-04-11 11:19:00,56.2,48.4,29.95,North,10,11.5,11.5,75,0.00,OVC,,0.01,WeatherDisplay:10.37,2013-04-11 15:19:00,
2013-04-11 11:24:00,56.3,48.1,29.95,NNE,14,11.0,11.0,74,0.00,OVC,,0.01,WeatherDisplay:10.37,2013-04-11 15:24:00,
2013-04-11 11:29:00,56.2,48.0,29.95,NNE,19,12.7,12.7,74,0.00,OVC,,0.01,WeatherDisplay:10.37,2013-04-11 15:29:00,
2013-04-11 11:34:00,56.4,48.2,29.95,North,351,11.5,11.5,74,0.00,OVC,,0.01,WeatherDisplay:10.37,2013-04-11 15:34:00,
2013-04-11 11:39:00,56.5,47.9,29.95,NNE,26,13.8,13.8,73,0.00,OVC,,0.01,WeatherDisplay:10.37,2013-04-11 15:39:00,
2013-04-11 11:44:00,56.3,48.1,29.95,North,5,13.0,13.0,74,0.00,OVC,,0.01,WeatherDisplay:10.37,2013-04-11 15:44:00,
2013-04-11 11:49:00,56.6,48.0,29.94,NNE,19,6.9,6.9,73,0.00,OVC,,0.01,WeatherDisplay:10.37,2013-04-11 15:49:00,
2013-04-11 11:54:00,57.1,48.2,29.94,NE,41,6.0,6.0,72,0.00,OVC,,0.01,WeatherDisplay:10.37,2013-04-11 15:54:00,
2013-04-11 11:59:00,57.3,48.3,29.94,North,11,11.5,11.5,72,0.00,OVC,,0.01,WeatherDisplay:10.37,2013-04-11 15:59:00,
2013-04-11 12:05:00,57.1,47.8,29.95,North,11,11.5,11.5,71,0.00,BKN,,0.01,WeatherDisplay:10.37,2013-04-11 16:05:00,
2013-04-11 12:10:00,57.4,48.1,29.95,NE,38,10.4,10.4,71,0.00,BKN,,0.01,WeatherDisplay:10.37,2013-04-11 16:10:00,
2013-04-11 12:16:00,57.4,48.4,29.95,NNE,21,9.2,9.2,72,0.00,BKN,,0.01,WeatherDisplay:10.37,2013-04-11 16:16:00,
2013-04-11 12:21:00,57.5,47.8,29.95,NNE,17,9.2,9.2,70,0.00,BKN,,0.01,WeatherDisplay:10.37,2013-04-11 16:21:00,
2013-04-11 12:26:00,58.0,48.6,29.95,NNE,22,8.1,8.1,71,0.00,BKN,,0.01,WeatherDisplay:10.37,2013-04-11 16:26:00,
2013-04-11 12:32:00,58.2,48.5,29.95,NE,55,8.1,8.1,70,0.00,BKN,,0.01,WeatherDisplay:10.37,2013-04-11 16:32:00,
2013-04-11 12:37:00,58.2,48.5,29.95,NE,34,9.2,9.2,70,0.00,BKN,,0.01,WeatherDisplay:10.37,2013-04-11 16:37:00,
2013-04-11 12:42:00,58.0,48.3,29.95,NE,44,12.7,12.7,70,0.00,BKN,,0.01,WeatherDisplay:10.37,2013-04-11 16:42:00,
2013-04-11 12:47:00,58.0,48.6,29.95,NE,50,10.0,10.0,71,0.00,BKN,,0.01,WeatherDisplay:10.37,2013-04-11 16:47:00,
2013-04-11 12:53:00,58.1,48.4,29.95,NE,46,9.2,9.2,70,0.00,BKN,,0.01,WeatherDisplay:10.37,2013-04-11 16:53:00,
2013-04-11 12:58:00,59.1,48.5,29.96,NE,48,1.1,0.0,68,0.00,BKN,,0.01,WeatherDisplay:10.37,2013-04-11 16:58:00,
2013-04-11 13:03:00,59.1,48.5,29.96,NE,37,7.0,7.0,68,0.00,BKN,,0.01,WeatherDisplay:10.37,2013-04-11 17:03:00,
2013-04-11 13:08:00,58.7,48.2,29.95,NE,42,6.9,6.9,68,0.00,BKN,,0.01,WeatherDisplay:10.37,2013-04-11 17:08:00,
2013-04-11 13:13:00,58.6,48.1,29.95,NE,38,6.9,6.9,68,0.00,BKN,,0.01,WeatherDisplay:10.37,2013-04-11 17:13:00,
2013-04-11 13:19:00,57.7,48.7,29.96,SE,134,13.0,13.0,72,0.00,BKN,,0.01,WeatherDisplay:10.37,2013-04-11 17:19:00,
2013-04-11 13:24:00,54.8,48.4,29.96,SSE,148,17.0,17.0,79,0.00,BKN,,0.01,WeatherDisplay:10.37,2013-04-11 17:24:00,
2013-04-11 13:29:00,53.6,48.6,29.96,SE,140,15.0,15.0,83,0.00,BKN,,0.01,WeatherDisplay:10.37,2013-04-11 17:29:00,
2013-04-11 13:34:00,53.4,48.7,29.97,SSE,148,13.8,13.8,84,0.00,BKN,,0.01,WeatherDisplay:10.37,2013-04-11 17:34:00,
2013-04-11 13:39:00,53.1,48.7,29.97,SE,142,12.7,13.3,85,0.00,BKN,,0.01,WeatherDisplay:10.37,2013-04-11 17:39:00,
2013-04-11 13:45:00,52.9,48.8,29.97,SSE,152,11.5,11.5,86,0.00,BKN,,0.01,WeatherDisplay:10.37,2013-04-11 17:45:00,
2013-04-11 13:50:00,53.0,48.6,29.97,SE,134,11.5,11.5,85,0.00,BKN,,0.01,WeatherDisplay:10.37,2013-04-11 17:50:00,
2013-04-11 13:55:00,52.9,48.5,29.97,SSE,152,11.5,12.5,85,0.00,BKN,,0.01,WeatherDisplay:10.37,2013-04-11 17:55:00,
2013-04-11 14:00:00,52.8,48.4,29.98,SSE,159,10.0,15.0,85,0.00,RA,,0.01,WeatherDisplay:10.37,2013-04-11 18:00:00,
2013-04-11 14:05:00,52.6,48.2,29.97,SSE,153,12.7,12.7,85,0.00,OVC,,0.01,WeatherDisplay:10.37,2013-04-11 18:05:00,
2013-04-11 14:10:00,52.5,48.1,29.97,SSE,153,11.5,11.5,85,0.00,OVC,,0.01,WeatherDisplay:10.37,2013-04-11 18:10:00,
2013-04-11 14:15:00,52.4,48.0,29.97,SSE,157,10.4,10.4,85,0.00,OVC,,0.01,WeatherDisplay:10.37,2013-04-11 18:15:00,
2013-04-11 14:20:00,52.3,47.9,29.97,SSE,149,11.5,11.5,85,0.00,OVC,,0.01,WeatherDisplay:10.37,2013-04-11 18:20:00,
2013-04-11 14:25:00,52.3,47.9,29.97,SSE,150,9.2,9.2,85,0.00,OVC,,0.01,WeatherDisplay:10.37,2013-04-11 18:25:00,
2013-04-11 14:30:00,52.4,48.0,29.97,SE,136,6.9,6.9,85,0.00,OVC,,0.01,WeatherDisplay:10.37,2013-04-11 18:30:00,
2013-04-11 14:36:00,52.4,48.0,29.97,SSE,151,8.1,8.1,85,0.00,OVC,,0.01,WeatherDisplay:10.37,2013-04-11 18:36:00,
2013-04-11 14:41:00,52.5,47.8,29.97,ESE,123,13.0,13.0,84,0.00,OVC,,0.01,WeatherDisplay:10.37,2013-04-11 18:41:00,
2013-04-11 14:46:00,52.5,47.5,29.97,ESE,123,8.1,8.1,83,0.00,OVC,,0.01,WeatherDisplay:10.37,2013-04-11 18:46:00,
2013-04-11 14:52:00,52.6,47.6,29.97,SE,139,6.9,6.9,83,0.00,OVC,,0.01,WeatherDisplay:10.37,2013-04-11 18:52:00,
2013-04-11 14:57:00,52.6,47.6,29.97,SE,133,8.1,8.1,83,0.00,OVC,,0.01,WeatherDisplay:10.37,2013-04-11 18:57:00,
2013-04-11 15:02:00,52.6,47.6,29.97,SE,130,6.9,6.9,83,0.00,OVC,,0.01,WeatherDisplay:10.37,2013-04-11 19:02:00,
2013-04-11 15:08:00,52.6,47.9,29.97,SSE,157,10.4,10.4,84,0.00,OVC,,0.01,WeatherDisplay:10.37,2013-04-11 19:08:00,
2013-04-11 15:13:00,52.4,47.7,29.97,South,176,9.2,9.2,84,0.00,OVC,,0.01,WeatherDisplay:10.37,2013-04-11 19:13:00,
2013-04-11 15:18:00,52.4,47.7,29.97,SSE,161,6.9,6.9,84,0.00,OVC,,0.01,WeatherDisplay:10.37,2013-04-11 19:18:00,
2013-04-11 15:23:00,52.4,47.7,29.97,SSE,153,11.5,11.5,84,0.00,OVC,,0.01,WeatherDisplay:10.37,2013-04-11 19:23:00,
2013-04-11 15:28:00,52.4,47.7,29.97,South,178,11.5,11.5,84,0.00,OVC,,0.01,WeatherDisplay:10.37,2013-04-11 19:28:00,
2013-04-11 15:34:00,52.3,47.6,29.97,South,174,8.1,8.1,84,0.00,OVC,,0.01,WeatherDisplay:10.37,2013-04-11 19:34:00,
2013-04-11 15:39:00,52.0,47.3,29.97,South,189,9.2,9.2,84,0.00,OVC,,0.01,WeatherDisplay:10.37,2013-04-11 19:39:00,
2013-04-11 15:44:00,51.9,47.5,29.97,SSE,157,11.5,11.5,85,0.00,OVC,,0.01,WeatherDisplay:10.37,2013-04-11 19:44:00,
2013-04-11 15:49:00,51.9,47.2,29.97,SE,125,12.7,12.7,84,0.00,OVC,,0.01,WeatherDisplay:10.37,2013-04-11 19:49:00,
2013-04-11 15:55:00,51.7,47.0,29.97,SE,143,12.0,12.0,84,0.00,OVC,,0.01,WeatherDisplay:10.37,2013-04-11 19:55:00,
2013-04-11 16:00:00,51.2,46.5,29.98,SE,134,16.1,16.1,84,0.00,OVC,,0.01,WeatherDisplay:10.37,2013-04-11 20:00:00,
2013-04-11 16:05:00,50.6,45.9,29.98,ESE,122,15.0,15.0,84,0.00,OVC,,0.01,WeatherDisplay:10.37,2013-04-11 20:05:00,
2013-04-11 16:10:00,50.1,45.5,29.98,SSE,155,15.0,15.0,84,0.00,OVC,,0.01,WeatherDisplay:10.37,2013-04-11 20:10:00,
2013-04-11 16:15:00,49.6,45.3,29.98,ESE,112,12.0,12.0,85,0.00,OVC,,0.01,WeatherDisplay:10.37,2013-04-11 20:15:00,
2013-04-11 16:20:00,49.4,45.1,29.99,SE,140,12.7,12.7,85,0.00,OVC,,0.01,WeatherDisplay:10.37,2013-04-11 20:20:00,
2013-04-11 16:25:00,49.2,44.9,29.99,SSE,160,11.5,11.5,85,0.00,OVC,,0.01,WeatherDisplay:10.37,2013-04-11 20:25:00,
2013-04-11 16:30:00,49.2,44.9,29.99,SE,138,11.5,11.5,85,0.00,OVC,,0.01,WeatherDisplay:10.37,2013-04-11 20:30:00,
2013-04-11 16:36:00,49.1,44.8,29.99,SE,139,12.7,12.7,85,0.00,OVC,,0.01,WeatherDisplay:10.37,2013-04-11 20:36:00,
2013-04-11 16:41:00,49.0,44.7,29.99,SE,136,12.7,12.7,85,0.00,OVC,,0.01,WeatherDisplay:10.37,2013-04-11 20:41:00,
2013-04-11 16:46:00,48.8,44.5,29.99,SE,134,13.8,13.8,85,0.00,OVC,,0.01,WeatherDisplay:10.37,2013-04-11 20:46:00,
2013-04-11 16:51:00,48.6,44.3,29.99,SE,140,12.7,12.7,85,0.00,OVC,,0.01,WeatherDisplay:10.37,2013-04-11 20:51:00,
2013-04-11 16:56:00,48.5,44.5,29.99,ESE,113,9.2,9.2,86,0.00,OVC,,0.01,WeatherDisplay:10.37,2013-04-11 20:56:00,
2013-04-11 17:02:00,48.4,44.4,29.99,ESE,112,11.5,11.5,86,0.00,OVC,,0.01,WeatherDisplay:10.37,2013-04-11 21:02:00,
2013-04-11 17:07:00,48.4,44.4,29.99,ESE,119,12.7,12.7,86,0.00,OVC,,0.01,WeatherDisplay:10.37,2013-04-11 21:07:00,
2013-04-11 17:13:00,48.3,44.3,30.00,ESE,107,9.2,9.2,86,0.00,OVC,,0.01,WeatherDisplay:10.37,2013-04-11 21:13:00,
2013-04-11 17:18:00,48.3,44.3,30.00,ESE,105,11.5,11.5,86,0.00,OVC,,0.01,WeatherDisplay:10.37,2013-04-11 21:18:00,
2013-04-11 17:23:00,48.3,44.3,30.00,ESE,113,9.2,9.2,86,0.00,OVC,,0.01,WeatherDisplay:10.37,2013-04-11 21:23:00,
2013-04-11 17:29:00,48.3,44.3,30.00,East,91,8.1,8.1,86,0.00,OVC,,0.01,WeatherDisplay:10.37,2013-04-11 21:29:00,
2013-04-11 17:34:00,48.3,44.0,29.99,ESE,103,9.0,9.0,85,0.00,OVC,,0.01,WeatherDisplay:10.37,2013-04-11 21:34:00,
2013-04-11 17:39:00,48.4,44.1,29.99,East,92,12.7,12.7,85,0.00,OVC,,0.01,WeatherDisplay:10.37,2013-04-11 21:39:00,
2013-04-11 17:44:00,48.5,44.2,29.99,ESE,103,15.0,15.0,85,0.00,OVC,,0.01,WeatherDisplay:10.37,2013-04-11 21:44:00,
2013-04-11 17:49:00,48.5,44.2,29.99,East,98,9.2,9.2,85,0.00,OVC,,0.01,WeatherDisplay:10.37,2013-04-11 21:49:00,
2013-04-11 17:54:00,48.6,44.3,29.99,ESE,104,6.9,6.9,85,0.00,OVC,,0.01,WeatherDisplay:10.37,2013-04-11 21:54:00,
2013-04-11 18:00:00,48.7,44.4,29.99,ESE,104,5.8,5.8,85,0.00,OVC,,0.01,WeatherDisplay:10.37,2013-04-11 22:00:00,
2013-04-11 18:05:00,48.8,44.8,30.00,ESE,105,4.6,4.6,86,0.00,OVC,,0.01,WeatherDisplay:10.37,2013-04-11 22:05:00,
2013-04-11 18:10:00,48.9,44.6,30.00,ESE,122,5.8,5.8,85,0.00,OVC,,0.01,WeatherDisplay:10.37,2013-04-11 22:10:00,
2013-04-11 18:15:00,48.9,44.6,30.00,SE,127,7.0,7.0,85,0.00,OVC,,0.01,WeatherDisplay:10.37,2013-04-11 22:15:00,
2013-04-11 18:20:00,49.1,44.5,30.00,SE,132,6.9,6.9,84,0.00,OVC,,0.01,WeatherDisplay:10.37,2013-04-11 22:20:00,
2013-04-11 18:25:00,49.1,44.5,30.01,SE,140,7.0,7.0,84,0.00,OVC,,0.01,WeatherDisplay:10.37,2013-04-11 22:25:00,
2013-04-11 18:31:00,49.1,44.2,30.01,ESE,107,9.2,9.2,83,0.00,OVC,,0.01,WeatherDisplay:10.37,2013-04-11 22:31:00,
2013-04-11 18:36:00,49.0,44.1,30.01,ESE,117,11.5,11.5,83,0.00,OVC,,0.01,WeatherDisplay:10.37,2013-04-11 22:36:00,
2013-04-11 18:41:00,48.9,43.3,30.01,ESE,109,15.0,15.0,81,0.00,OVC,,0.01,WeatherDisplay:10.37,2013-04-11 22:41:00,
2013-04-11 18:46:00,48.7,43.1,30.02,ESE,109,13.8,13.8,81,0.00,OVC,,0.01,WeatherDisplay:10.37,2013-04-11 22:46:00,
2013-04-11 18:52:00,48.5,42.6,30.02,ESE,114,16.1,16.1,80,0.00,OVC,,0.01,WeatherDisplay:10.37,2013-04-11 22:52:00,
2013-04-11 18:57:00,48.4,42.5,30.03,ESE,113,13.8,13.8,80,0.00,OVC,,0.01,WeatherDisplay:10.37,2013-04-11 22:57:00,
2013-04-11 19:02:00,48.3,42.7,30.03,SE,128,11.0,11.0,81,0.00,OVC,,0.01,WeatherDisplay:10.37,2013-04-11 23:02:00,
2013-04-11 19:07:00,48.1,42.5,30.03,SE,130,13.8,13.8,81,0.00,OVC,,0.01,WeatherDisplay:10.37,2013-04-11 23:07:00,
2013-04-11 19:12:00,47.8,42.3,30.04,SE,125,16.1,16.1,81,0.00,OVC,,0.01,WeatherDisplay:10.37,2013-04-11 23:12:00,
2013-04-11 19:18:00,47.6,42.1,30.04,SE,139,13.8,13.8,81,0.00,OVC,,0.01,WeatherDisplay:10.37,2013-04-11 23:18:00,
2013-04-11 19:23:00,47.4,42.5,30.03,SE,126,12.7,12.7,83,0.00,OVC,,0.01,WeatherDisplay:10.37,2013-04-11 23:23:00,
2013-04-11 19:28:00,47.1,42.2,30.03,SE,140,11.5,11.5,83,0.00,OVC,,0.01,WeatherDisplay:10.37,2013-04-11 23:28:00,
2013-04-11 19:33:00,46.8,41.9,30.03,ESE,123,11.5,11.5,83,0.00,OVC,,0.01,WeatherDisplay:10.37,2013-04-11 23:33:00,
2013-04-11 19:39:00,46.6,41.4,30.03,ESE,120,15.0,15.0,82,0.00,OVC,,0.01,WeatherDisplay:10.37,2013-04-11 23:39:00,
2013-04-11 19:44:00,46.5,41.3,30.03,ESE,120,15.0,15.0,82,0.00,OVC,,0.01,WeatherDisplay:10.37,2013-04-11 23:44:00,
2013-04-11 19:49:00,46.5,41.0,30.03,East,98,13.0,13.0,81,0.00,OVC,,0.01,WeatherDisplay:10.37,2013-04-11 23:49:00,
2013-04-11 19:54:00,46.5,41.3,30.04,ESE,120,11.5,11.5,82,0.00,OVC,,0.01,WeatherDisplay:10.37,2013-04-11 23:54:00,
2013-04-11 20:00:00,46.6,41.1,30.05,ESE,115,15.0,15.0,81,0.00,OVC,,0.01,WeatherDisplay:10.37,2013-04-12 00:00:00,
2013-04-11 20:05:00,46.6,40.8,30.05,East,98,15.0,15.0,80,0.00,OVC,,0.01,WeatherDisplay:10.37,2013-04-12 00:05:00,
2013-04-11 20:10:00,46.6,40.8,30.05,East,87,11.5,11.5,80,0.00,OVC,,0.01,WeatherDisplay:10.37,2013-04-12 00:10:00,
2013-04-11 20:15:00,46.6,40.4,30.05,East,99,7.0,16.0,79,0.00,RA,,0.01,WeatherDisplay:10.37,2013-04-12 00:15:00,
2013-04-11 20:20:00,46.7,40.5,30.05,ESE,103,12.7,12.7,79,0.00,OVC,,0.01,WeatherDisplay:10.37,2013-04-12 00:20:00,
2013-04-11 20:25:00,46.7,40.5,30.05,East,98,12.7,12.7,79,0.00,OVC,,0.01,WeatherDisplay:10.37,2013-04-12 00:25:00,
2013-04-11 20:30:00,46.7,40.5,30.05,East,100,15.0,15.0,79,0.00,OVC,,0.01,WeatherDisplay:10.37,2013-04-12 00:30:00,
2013-04-11 20:35:00,46.6,40.4,30.06,East,98,13.8,13.8,79,0.00,OVC,,0.01,WeatherDisplay:10.37,2013-04-12 00:35:00,
2013-04-11 20:41:00,46.6,40.8,30.06,East,101,12.0,12.0,80,0.00,OVC,,0.01,WeatherDisplay:10.37,2013-04-12 00:41:00,
2013-04-11 20:46:00,46.5,40.7,30.07,East,86,12.7,12.7,80,0.00,OVC,,0.01,WeatherDisplay:10.37,2013-04-12 00:46:00,
2013-04-11 20:51:00,46.5,40.3,30.07,ENE,78,13.8,13.8,79,0.00,OVC,,0.01,WeatherDisplay:10.37,2013-04-12 00:51:00,
2013-04-11 20:56:00,46.5,40.7,30.06,East,83,19.6,19.6,80,0.00,OVC,,0.01,WeatherDisplay:10.37,2013-04-12 00:56:00,
2013-04-11 21:01:00,46.5,40.7,30.06,ESE,104,15.0,15.0,80,0.00,OVC,,0.01,WeatherDisplay:10.37,2013-04-12 01:01:00,
2013-04-11 21:07:00,46.4,40.2,30.07,East,92,15.0,15.0,79,0.00,OVC,,0.01,WeatherDisplay:10.37,2013-04-12 01:07:00,
2013-04-11 21:12:00,46.4,40.6,30.08,East,93,8.1,8.1,80,0.00,OVC,,0.01,WeatherDisplay:10.37,2013-04-12 01:12:00,
2013-04-11 21:17:00,46.4,40.6,30.08,East,94,11.5,11.5,80,0.00,OVC,,0.01,WeatherDisplay:10.37,2013-04-12 01:17:00,
2013-04-11 21:23:00,46.5,41.0,30.08,East,84,11.5,11.5,81,0.00,OVC,,0.01,WeatherDisplay:10.37,2013-04-12 01:23:00,
2013-04-11 21:28:00,46.4,40.6,30.08,East,95,11.5,11.5,80,0.00,OVC,,0.01,WeatherDisplay:10.37,2013-04-12 01:28:00,
2013-04-11 21:33:00,46.4,40.6,30.08,East,88,12.7,12.7,80,0.00,OVC,,0.01,WeatherDisplay:10.37,2013-04-12 01:33:00,
2013-04-11 21:38:00,46.5,40.7,30.08,East,89,11.5,11.5,80,0.00,OVC,,0.01,WeatherDisplay:10.37,2013-04-12 01:38:00,
2013-04-11 21:43:00,46.4,40.6,30.08,East,87,11.5,11.5,80,0.00,OVC,,0.01,WeatherDisplay:10.37,2013-04-12 01:43:00,
2013-04-11 21:48:00,46.5,40.7,30.09,East,90,9.0,9.0,80,0.00,OVC,,0.01,WeatherDisplay:10.37,2013-04-12 01:48:00,
2013-04-11 21:53:00,46.4,39.9,30.08,ENE,76,11.5,11.5,78,0.00,OVC,,0.01,WeatherDisplay:10.37,2013-04-12 01:53:00,
2013-04-11 21:58:00,46.5,40.0,30.08,East,88,11.5,11.5,78,0.00,OVC,,0.01,WeatherDisplay:10.37,2013-04-12 01:58:00,
2013-04-11 22:04:00,46.4,39.9,30.08,East,80,11.5,11.5,78,0.00,OVC,,0.01,WeatherDisplay:10.37,2013-04-12 02:04:00,
2013-04-11 22:09:00,46.5,40.0,30.08,ENE,75,8.1,8.1,78,0.00,OVC,,0.01,WeatherDisplay:10.37,2013-04-12 02:09:00,
2013-04-11 22:14:00,46.5,40.0,30.08,ENE,75,8.0,8.0,78,0.00,OVC,,0.01,WeatherDisplay:10.37,2013-04-12 02:14:00,
2013-04-11 22:19:00,46.5,40.0,30.08,East,82,12.7,12.7,78,0.00,OVC,,0.01,WeatherDisplay:10.37,2013-04-12 02:19:00,
2013-04-11 22:25:00,46.5,40.0,30.08,East,91,13.0,13.0,78,0.00,OVC,,0.01,WeatherDisplay:10.37,2013-04-12 02:25:00,
2013-04-11 22:30:00,46.5,40.0,30.08,East,83,7.0,13.0,78,0.00,RA,,0.01,WeatherDisplay:10.37,2013-04-12 02:30:00,
2013-04-11 22:35:00,46.5,40.0,30.09,East,88,5.8,5.8,78,0.00,OVC,,0.01,WeatherDisplay:10.37,2013-04-12 02:35:00,
2013-04-11 22:40:00,46.5,39.7,30.09,East,85,6.9,6.9,77,0.00,OVC,,0.01,WeatherDisplay:10.37,2013-04-12 02:40:00,
2013-04-11 22:45:00,46.5,39.7,30.08,East,80,6.9,6.9,77,0.00,OVC,,0.01,WeatherDisplay:10.37,2013-04-12 02:45:00,
2013-04-11 22:50:00,46.5,39.7,30.08,East,87,9.2,9.2,77,0.00,OVC,,0.01,WeatherDisplay:10.37,2013-04-12 02:50:00,
2013-04-11 22:56:00,46.6,39.4,30.08,East,82,11.5,11.5,76,0.00,OVC,,0.01,WeatherDisplay:10.37,2013-04-12 02:56:00,
2013-04-11 23:01:00,46.7,39.2,30.08,East,82,10.4,10.4,75,0.00,OVC,,0.01,WeatherDisplay:10.37,2013-04-12 03:01:00,
2013-04-11 23:06:00,46.7,39.2,30.07,ENE,76,10.4,10.4,75,0.00,OVC,,0.01,WeatherDisplay:10.37,2013-04-12 03:06:00,
2013-04-11 23:11:00,46.7,38.9,30.08,ENE,76,12.7,12.7,74,0.00,OVC,,0.01,WeatherDisplay:10.37,2013-04-12 03:11:00,
2013-04-11 23:17:00,46.7,38.9,30.08,ENE,76,8.0,8.0,74,0.00,OVC,,0.01,WeatherDisplay:10.37,2013-04-12 03:17:00,
2013-04-11 23:22:00,46.7,38.9,30.09,East,91,11.0,11.0,74,0.00,OVC,,0.01,WeatherDisplay:10.37,2013-04-12 03:22:00,
2013-04-11 23:27:00,46.8,38.6,30.09,ENE,76,8.0,8.0,73,0.00,OVC,,0.01,WeatherDisplay:10.37,2013-04-12 03:27:00,
2013-04-11 23:32:00,46.9,38.3,30.09,ENE,70,11.5,11.5,72,0.00,OVC,,0.01,WeatherDisplay:10.37,2013-04-12 03:32:00,
2013-04-11 23:37:00,46.9,38.3,30.09,ENE,71,11.0,11.0,72,0.00,OVC,,0.01,WeatherDisplay:10.37,2013-04-12 03:37:00,
2013-04-11 23:42:00,46.9,37.6,30.09,NE,56,11.5,11.5,70,0.00,OVC,,0.01,WeatherDisplay:10.37,2013-04-12 03:42:00,
2013-04-11 23:48:00,47.0,38.1,30.08,ENE,65,6.0,6.0,71,0.00,OVC,,0.01,WeatherDisplay:10.37,2013-04-12 03:48:00,
2013-04-11 23:53:00,47.0,38.1,30.08,ENE,61,7.0,7.0,71,0.00,OVC,,0.01,WeatherDisplay:10.37,2013-04-12 03:53:00,
2013-04-11 23:58:00,47.1,38.2,30.09,ENE,67,10.4,10.4,71,0.00,OVC,,0.01,WeatherDisplay:10.37,2013-04-12 03:58:00,